Погода Новостроенкана 2 недели

Ростовская область, Россия

18 - 31 июля
  • 18июля
    Сегодня
    +25°
    +37°
    Практически безоблачно
    ВремяПогодаТемператураВлажностьДавлениеВетер, м/сВероятность осадков
    00:00Ясно и безоблачно+28°C40 %757 мм2.2 м/с2 %
    03:00Ясно и безоблачно+26°C51 %757 мм1.8 м/с2 %
    06:00Ясно и безоблачно+26°C51 %757 мм1.7 м/с2 %
    09:00Ясно и безоблачно+33°C29 %757 мм1.3 м/с2 %
    12:00Ясно и безоблачно+36°C24 %757 мм2.4 м/с2 %
    15:00Практически безоблачно+37°C26 %755 мм3.7 м/с2 %
    18:00Ясно и безоблачно+36°C31 %754 мм2.3 м/с2 %
    21:00Практически безоблачно+31°C35 %754 мм2.1 м/с2 %
  • 19июля
    Пятница
    +25°
    +39°
    Практически безоблачно
    ВремяПогодаТемператураВлажностьДавлениеВетер, м/сВероятность осадков
    00:00Ясно и безоблачно+30°C32 %754 мм4.2 м/с2 %
    03:00Ясно и безоблачно+28°C35 %753 мм2.8 м/с2 %
    06:00Ясно и безоблачно+27°C42 %753 мм3.4 м/с2 %
    09:00Ясно и безоблачно+34°C31 %753 мм2.4 м/с2 %
    12:00Ясно и безоблачно+39°C22 %752 мм0.8 м/с2 %
    15:00Практически безоблачно+38°C22 %751 мм2.9 м/с5 %
    18:00Практически безоблачно+36°C35 %750 мм4.5 м/с5 %
    21:00Небольшая облачность+32°C36 %751 мм4.7 м/с2 %
  • 20июля
    Суббота
    +23°
    +35°
    Практически безоблачно
    ВремяПогодаТемператураВлажностьДавлениеВетер, м/сВероятность осадков
    00:00Облачно с прояснениями+28°C44 %751 мм3.3 м/с2 %
    03:00Практически безоблачно+27°C55 %751 мм4.1 м/с2 %
    06:00Облачно с прояснениями+26°C59 %751 мм4.8 м/с2 %
    09:00Ясно и безоблачно+31°C46 %751 мм4.4 м/с2 %
    12:00Небольшая облачность+35°C36 %751 мм2.8 м/с4 %
    15:00Практически безоблачно+35°C35 %751 мм1.4 м/с11 %
    18:00Небольшая облачность+33°C36 %751 мм1.3 м/с15 %
    21:00Облачно с прояснениями+29°C48 %752 мм1.7 м/с3 %
  • 21июля
    Воскресенье
    +24°
    +36°
    Ясно и безоблачно
    ВремяПогодаТемператураВлажностьДавлениеВетер, м/сВероятность осадков
    00:00Небольшая облачность+26°C60 %752 мм1.4 м/с2 %
    03:00Ясно и безоблачно+25°C62 %752 мм2.2 м/с2 %
    06:00Ясно и безоблачно+25°C57 %753 мм3.4 м/с2 %
    09:00Ясно и безоблачно+31°C35 %753 мм2.8 м/с2 %
    12:00Ясно и безоблачно+36°C30 %753 мм0.8 м/с4 %
    15:00Ясно и безоблачно+36°C30 %752 мм2.6 м/с3 %
    18:00Практически безоблачно+34°C27 %752 мм2.2 м/с2 %
    21:00Облачно с прояснениями+29°C41 %752 мм1.9 м/с2 %
  • 22июля
    Понедельник
    +22°
    +35°
    Ясно и безоблачно
    ВремяПогодаТемператураВлажностьДавлениеВетер, м/сВероятность осадков
    00:00Облачно с прояснениями+27°C45 %752 мм1.9 м/с2 %
    03:00Облачно с прояснениями+26°C49 %752 мм1.6 м/с2 %
    06:00Практически безоблачно+25°C50 %752 мм4.1 м/с2 %
    09:00Практически безоблачно+32°C38 %752 мм3.0 м/с2 %
    12:00Практически безоблачно+35°C36 %752 мм3.8 м/с4 %
    15:00Ясно и безоблачно+34°C36 %752 мм3.3 м/с8 %
    18:00Ясно и безоблачно+32°C40 %751 мм2.8 м/с5 %
    21:00Ясно и безоблачно+29°C56 %752 мм1.7 м/с6 %
Мы используем cookies
Соглашаюсь